Toccopola, MS (38874)

11:43 AM CDT on July 23, 2014 (GMT -0500)
APRSWXNET Sherman MS MS (MD8570) Elev 370 ft | 34.36 °N, 88.84 °W | Change Station

Current weather conditions updated 53 minutes ago

Partly Cloudy
Partly Cloudy
85 °F
Feels Like 94 °F
N
0
Wind Variable Wind from SW
Gusts 5.0 mph

Today is forecast to be nearly the same temperature as yesterday.

Today
High -- | Low -- °F
--% Chance of Precip.
Yesterday
High -- | Low -- °F
Precip. -- in
6:01 AM 8:04 PM
Waning Crescent, 10% visible
Pressure 30.09 in
Visibility 10.0 miles
Clouds Clear
Heat Index 94 °F
Dew Point 76 °F
Humidity 74%
Rainfall 0.00 in
Snow Depth Not available.
UV 10 out of 12
Pollen 3.40 out of 12
Air Quality Not available.
Flu Activity Not available.
METAR KUOX 231615Z AUTO 00000KT 10SM CLR 29/20 A3009 RMK AO2

More Conditions Fewer Conditions

Pressure 30.09 in
Visibility 10.0 miles
Clouds Clear
Heat Index 94 °F
Dew Point 76 °F
Humidity 74%
Rainfall 0.00 in
Snow Depth Not available.
UV 10 out of 12
Pollen 3.40 out of 12
Air Quality Not available.
Flu Activity Not available.
METAR KUOX 231615Z AUTO 00000KT 10SM CLR 29/20 A3009 RMK AO2

More Conditions Fewer Conditions

10-Day Weather Forecast

Almanac

Astronomy

Jul. 23, 2014 Rise Set
Actual Time 6:01 AM CDT 8:04 PM CDT
Civil Twilight 5:32 AM CDT 8:32 PM CDT
Nautical Twilight 4:58 AM CDT 9:07 PM CDT
Astronomical Twilight 4:21 AM CDT 9:43 PM CDT
Moon 3:18 AM CDT 5:34 PM CDT
Length of Visible Light 14h 59m
Length of Day
14h 03m
Tomorrow will be 1m 21s shorter.
Waning Crescent, 10% of the Moon is Illuminated
Today
Waning Crescent
Jul 26
New
Aug 3
First Quarter
Aug 10
Full
Aug 17
Last Quarter

Today's Extremes

State Highs State Lows

Community

WunderPhotos

Upload Photos

1,736,668 photos uploaded!

Nearby

Snow Depth

Station Depth Elevation
No new snow has been reported.

Earthquake Activity

City Distance Mag. Time & Date
No recent earthquake activity has been reported nearby.
Minimum magnitude displayed is 2.5.

Coastal Water Temperatures

Place Temperature
No Stations Reporting

Nearby Weather Stations

Station Location Temp. Heat Index Dew Point Humidity Wind Precip. Elev Updated Type
APRSWXNET Sherman MS , Blue Springs, MS 85 °F 94 °F 76 °F 74% SW  at  0 mph 0.00 in / hr 370 ft 10:50 AM CDT MADIS
APRSWXNET Sherman MS , Belden, MS 80 °F 85 °F 76 °F 88% SSE  at  2 mph 0.01 in / hr 360 ft 9:03 AM CDT MADIS
Georgetown in The Villages, Tupelo, MS 85.5 °F 96 °F 77 °F 75% NE  at  2.7 mph - / hr 312 ft 11:35 AM CDT Normal
RAWS HIGHWAY 41 MS, Algoma, MS 84 °F 94 °F 77 °F 80% North  at  0 mph 0.00 in / hr 319 ft 10:52 AM CDT MADIS
Birmingham Ridge / NW Lee County, MS, Saltillo, MS 89.4 °F 98 °F 73 °F 59% West  at  0.0 mph 0.00 in / hr 308 ft 11:43 AM CDT Rapid Fire

Show More Stations Show Fewer Stations